sensor_id;sensor_type;location;lat;lon;timestamp;P1;durP1;ratioP1;P2;durP2;ratioP2
5785;SDS011;2919;48.630;9.000;2023-11-19T00:00:18;4.17;;;2.70;;
5785;SDS011;2919;48.630;9.000;2023-11-19T00:02:44;3.80;;;2.50;;
5785;SDS011;2919;48.630;9.000;2023-11-19T00:05:10;10.63;;;3.50;;
5785;SDS011;2919;48.630;9.000;2023-11-19T00:07:36;5.57;;;3.17;;
5785;SDS011;2919;48.630;9.000;2023-11-19T00:10:06;8.90;;;3.70;;
5785;SDS011;2919;48.630;9.000;2023-11-19T00:12:44;3.90;;;2.53;;
5785;SDS011;2919;48.630;9.000;2023-11-19T00:15:11;4.83;;;2.80;;
5785;SDS011;2919;48.630;9.000;2023-11-19T00:17:46;4.27;;;2.87;;
5785;SDS011;2919;48.630;9.000;2023-11-19T00:20:14;4.73;;;2.20;;
5785;SDS011;2919;48.630;9.000;2023-11-19T00:22:40;4.33;;;2.83;;
5785;SDS011;2919;48.630;9.000;2023-11-19T00:25:07;5.07;;;2.20;;
5785;SDS011;2919;48.630;9.000;2023-11-19T00:27:33;2.30;;;1.73;;
5785;SDS011;2919;48.630;9.000;2023-11-19T00:29:59;2.73;;;1.60;;
5785;SDS011;2919;48.630;9.000;2023-11-19T00:32:24;4.27;;;2.10;;
5785;SDS011;2919;48.630;9.000;2023-11-19T00:34:50;7.37;;;2.03;;
5785;SDS011;2919;48.630;9.000;2023-11-19T00:37:16;3.67;;;1.80;;
5785;SDS011;2919;48.630;9.000;2023-11-19T00:39:41;3.00;;;2.10;;
5785;SDS011;2919;48.630;9.000;2023-11-19T00:42:08;5.53;;;2.40;;
5785;SDS011;2919;48.630;9.000;2023-11-19T00:44:35;3.63;;;1.77;;
5785;SDS011;2919;48.630;9.000;2023-11-19T00:47:01;2.70;;;1.80;;
5785;SDS011;2919;48.630;9.000;2023-11-19T00:49:26;4.00;;;1.93;;
5785;SDS011;2919;48.630;9.000;2023-11-19T00:51:52;3.50;;;1.60;;
5785;SDS011;2919;48.630;9.000;2023-11-19T00:54:17;2.83;;;1.47;;
5785;SDS011;2919;48.630;9.000;2023-11-19T00:56:43;2.43;;;1.47;;
5785;SDS011;2919;48.630;9.000;2023-11-19T00:59:09;3.90;;;1.60;;
5785;SDS011;2919;48.630;9.000;2023-11-19T01:01:35;2.90;;;1.83;;
5785;SDS011;2919;48.630;9.000;2023-11-19T01:04:01;4.60;;;2.10;;
5785;SDS011;2919;48.630;9.000;2023-11-19T01:06:29;2.63;;;1.63;;
5785;SDS011;2919;48.630;9.000;2023-11-19T01:08:56;3.40;;;2.10;;
5785;SDS011;2919;48.630;9.000;2023-11-19T01:11:22;6.60;;;1.80;;
5785;SDS011;2919;48.630;9.000;2023-11-19T01:13:48;2.30;;;1.23;;
5785;SDS011;2919;48.630;9.000;2023-11-19T01:16:14;3.20;;;2.07;;
5785;SDS011;2919;48.630;9.000;2023-11-19T01:18:40;3.00;;;1.90;;
5785;SDS011;2919;48.630;9.000;2023-11-19T01:21:06;2.33;;;1.47;;
5785;SDS011;2919;48.630;9.000;2023-11-19T01:23:31;2.90;;;1.60;;
5785;SDS011;2919;48.630;9.000;2023-11-19T01:25:57;3.27;;;2.07;;
5785;SDS011;2919;48.630;9.000;2023-11-19T01:28:23;2.50;;;1.17;;
5785;SDS011;2919;48.630;9.000;2023-11-19T01:30:51;3.67;;;1.63;;
5785;SDS011;2919;48.630;9.000;2023-11-19T01:33:17;2.87;;;1.57;;
5785;SDS011;2919;48.630;9.000;2023-11-19T01:35:43;2.83;;;1.50;;
5785;SDS011;2919;48.630;9.000;2023-11-19T01:38:08;1.50;;;1.13;;
5785;SDS011;2919;48.630;9.000;2023-11-19T01:40:34;4.73;;;1.20;;
5785;SDS011;2919;48.630;9.000;2023-11-19T01:43:01;2.70;;;1.50;;
5785;SDS011;2919;48.630;9.000;2023-11-19T01:45:28;3.87;;;1.47;;
5785;SDS011;2919;48.630;9.000;2023-11-19T01:47:55;4.47;;;1.87;;
5785;SDS011;2919;48.630;9.000;2023-11-19T01:50:22;1.93;;;1.20;;
5785;SDS011;2919;48.630;9.000;2023-11-19T01:52:49;2.10;;;1.20;;
5785;SDS011;2919;48.630;9.000;2023-11-19T01:55:19;2.20;;;1.10;;
5785;SDS011;2919;48.630;9.000;2023-11-19T01:57:46;2.80;;;1.63;;
5785;SDS011;2919;48.630;9.000;2023-11-19T02:00:12;2.80;;;1.20;;
5785;SDS011;2919;48.630;9.000;2023-11-19T02:02:39;1.60;;;0.97;;
5785;SDS011;2919;48.630;9.000;2023-11-19T02:05:06;1.57;;;0.93;;
5785;SDS011;2919;48.630;9.000;2023-11-19T02:07:32;1.50;;;0.90;;
5785;SDS011;2919;48.630;9.000;2023-11-19T02:09:57;1.77;;;1.00;;
5785;SDS011;2919;48.630;9.000;2023-11-19T02:12:27;1.80;;;1.07;;
5785;SDS011;2919;48.630;9.000;2023-11-19T02:14:53;2.40;;;1.23;;
5785;SDS011;2919;48.630;9.000;2023-11-19T02:17:28;1.87;;;1.10;;
5785;SDS011;2919;48.630;9.000;2023-11-19T02:19:56;1.80;;;1.30;;
5785;SDS011;2919;48.630;9.000;2023-11-19T02:22:23;1.60;;;1.00;;
5785;SDS011;2919;48.630;9.000;2023-11-19T02:24:49;1.90;;;1.10;;
5785;SDS011;2919;48.630;9.000;2023-11-19T02:27:21;1.60;;;0.83;;
5785;SDS011;2919;48.630;9.000;2023-11-19T02:29:54;3.13;;;0.80;;
5785;SDS011;2919;48.630;9.000;2023-11-19T02:32:20;1.20;;;0.60;;
5785;SDS011;2919;48.630;9.000;2023-11-19T02:34:45;1.40;;;0.80;;
5785;SDS011;2919;48.630;9.000;2023-11-19T02:37:11;1.70;;;0.77;;
5785;SDS011;2919;48.630;9.000;2023-11-19T02:39:37;1.10;;;0.67;;
5785;SDS011;2919;48.630;9.000;2023-11-19T02:42:02;1.60;;;0.50;;
5785;SDS011;2919;48.630;9.000;2023-11-19T02:44:28;3.23;;;0.93;;
5785;SDS011;2919;48.630;9.000;2023-11-19T02:46:55;6.83;;;0.60;;
5785;SDS011;2919;48.630;9.000;2023-11-19T02:49:24;1.30;;;0.50;;
5785;SDS011;2919;48.630;9.000;2023-11-19T02:51:50;1.40;;;0.70;;
5785;SDS011;2919;48.630;9.000;2023-11-19T02:54:16;1.07;;;0.53;;
5785;SDS011;2919;48.630;9.000;2023-11-19T02:56:44;1.10;;;0.50;;
5785;SDS011;2919;48.630;9.000;2023-11-19T02:59:12;1.10;;;0.50;;
5785;SDS011;2919;48.630;9.000;2023-11-19T03:01:52;1.00;;;0.40;;
5785;SDS011;2919;48.630;9.000;2023-11-19T03:04:18;1.37;;;0.63;;
5785;SDS011;2919;48.630;9.000;2023-11-19T03:06:45;1.00;;;0.40;;
5785;SDS011;2919;48.630;9.000;2023-11-19T03:09:11;1.67;;;0.63;;
5785;SDS011;2919;48.630;9.000;2023-11-19T03:11:37;1.10;;;0.50;;
5785;SDS011;2919;48.630;9.000;2023-11-19T03:14:02;2.80;;;0.80;;
5785;SDS011;2919;48.630;9.000;2023-11-19T03:16:28;1.10;;;0.50;;
5785;SDS011;2919;48.630;9.000;2023-11-19T03:18:54;1.20;;;0.50;;
5785;SDS011;2919;48.630;9.000;2023-11-19T03:21:26;1.47;;;0.70;;
5785;SDS011;2919;48.630;9.000;2023-11-19T03:23:53;1.20;;;0.50;;
5785;SDS011;2919;48.630;9.000;2023-11-19T03:26:18;1.10;;;0.50;;
5785;SDS011;2919;48.630;9.000;2023-11-19T03:28:44;1.20;;;0.50;;
5785;SDS011;2919;48.630;9.000;2023-11-19T03:31:09;1.07;;;0.57;;
5785;SDS011;2919;48.630;9.000;2023-11-19T03:33:35;1.00;;;0.50;;
5785;SDS011;2919;48.630;9.000;2023-11-19T03:36:00;1.00;;;0.40;;
5785;SDS011;2919;48.630;9.000;2023-11-19T03:38:26;1.17;;;0.60;;
5785;SDS011;2919;48.630;9.000;2023-11-19T03:40:51;1.00;;;0.40;;
5785;SDS011;2919;48.630;9.000;2023-11-19T03:43:17;1.20;;;0.50;;
5785;SDS011;2919;48.630;9.000;2023-11-19T03:45:44;1.30;;;0.53;;
5785;SDS011;2919;48.630;9.000;2023-11-19T03:48:09;1.20;;;0.60;;
5785;SDS011;2919;48.630;9.000;2023-11-19T03:50:35;1.30;;;0.70;;
5785;SDS011;2919;48.630;9.000;2023-11-19T03:53:00;1.10;;;0.50;;
5785;SDS011;2919;48.630;9.000;2023-11-19T03:55:27;3.00;;;1.10;;
5785;SDS011;2919;48.630;9.000;2023-11-19T03:57:54;3.43;;;1.00;;
5785;SDS011;2919;48.630;9.000;2023-11-19T04:00:19;2.10;;;0.77;;
5785;SDS011;2919;48.630;9.000;2023-11-19T04:02:46;3.27;;;1.13;;
5785;SDS011;2919;48.630;9.000;2023-11-19T04:05:12;2.17;;;0.97;;
5785;SDS011;2919;48.630;9.000;2023-11-19T04:07:37;3.73;;;1.17;;
5785;SDS011;2919;48.630;9.000;2023-11-19T04:10:03;1.63;;;0.93;;
5785;SDS011;2919;48.630;9.000;2023-11-19T04:12:29;1.20;;;0.70;;
5785;SDS011;2919;48.630;9.000;2023-11-19T04:14:54;1.83;;;0.80;;
5785;SDS011;2919;48.630;9.000;2023-11-19T04:17:21;1.30;;;0.60;;
5785;SDS011;2919;48.630;9.000;2023-11-19T04:19:47;1.97;;;0.60;;
5785;SDS011;2919;48.630;9.000;2023-11-19T04:22:13;1.40;;;0.60;;
5785;SDS011;2919;48.630;9.000;2023-11-19T04:24:39;3.77;;;0.90;;
5785;SDS011;2919;48.630;9.000;2023-11-19T04:27:05;1.40;;;0.60;;
5785;SDS011;2919;48.630;9.000;2023-11-19T04:29:31;1.67;;;0.60;;
5785;SDS011;2919;48.630;9.000;2023-11-19T04:31:57;1.00;;;0.40;;
5785;SDS011;2919;48.630;9.000;2023-11-19T04:34:23;1.87;;;0.70;;
5785;SDS011;2919;48.630;9.000;2023-11-19T04:36:49;1.40;;;0.70;;
5785;SDS011;2919;48.630;9.000;2023-11-19T04:39:14;1.10;;;0.50;;
5785;SDS011;2919;48.630;9.000;2023-11-19T04:41:46;1.20;;;0.63;;
5785;SDS011;2919;48.630;9.000;2023-11-19T04:44:18;1.20;;;0.60;;
5785;SDS011;2919;48.630;9.000;2023-11-19T04:46:43;1.00;;;0.50;;
5785;SDS011;2919;48.630;9.000;2023-11-19T04:49:09;1.00;;;0.50;;
5785;SDS011;2919;48.630;9.000;2023-11-19T04:51:55;1.10;;;0.50;;
5785;SDS011;2919;48.630;9.000;2023-11-19T04:54:20;1.83;;;1.00;;
5785;SDS011;2919;48.630;9.000;2023-11-19T04:56:46;1.20;;;0.50;;
5785;SDS011;2919;48.630;9.000;2023-11-19T04:59:12;1.27;;;0.60;;
5785;SDS011;2919;48.630;9.000;2023-11-19T05:01:38;1.57;;;0.80;;
5785;SDS011;2919;48.630;9.000;2023-11-19T05:04:03;1.37;;;0.50;;
5785;SDS011;2919;48.630;9.000;2023-11-19T05:06:29;1.80;;;0.67;;
5785;SDS011;2919;48.630;9.000;2023-11-19T05:08:56;1.20;;;0.60;;
5785;SDS011;2919;48.630;9.000;2023-11-19T05:11:33;1.03;;;0.47;;
5785;SDS011;2919;48.630;9.000;2023-11-19T05:13:59;1.30;;;0.70;;
5785;SDS011;2919;48.630;9.000;2023-11-19T05:16:25;1.10;;;0.50;;
5785;SDS011;2919;48.630;9.000;2023-11-19T05:18:51;2.60;;;0.80;;
5785;SDS011;2919;48.630;9.000;2023-11-19T05:21:16;1.97;;;1.00;;
5785;SDS011;2919;48.630;9.000;2023-11-19T05:23:42;7.90;;;0.80;;
5785;SDS011;2919;48.630;9.000;2023-11-19T05:26:08;1.57;;;0.50;;
5785;SDS011;2919;48.630;9.000;2023-11-19T05:28:35;1.30;;;0.70;;
5785;SDS011;2919;48.630;9.000;2023-11-19T05:31:02;1.00;;;0.50;;
5785;SDS011;2919;48.630;9.000;2023-11-19T05:33:28;1.20;;;0.70;;
5785;SDS011;2919;48.630;9.000;2023-11-19T05:35:53;1.13;;;0.50;;
5785;SDS011;2919;48.630;9.000;2023-11-19T05:38:19;2.13;;;0.70;;
5785;SDS011;2919;48.630;9.000;2023-11-19T05:40:46;1.10;;;0.60;;
5785;SDS011;2919;48.630;9.000;2023-11-19T05:43:13;1.40;;;0.67;;
5785;SDS011;2919;48.630;9.000;2023-11-19T05:45:39;1.27;;;0.67;;
5785;SDS011;2919;48.630;9.000;2023-11-19T05:48:05;2.33;;;0.90;;
5785;SDS011;2919;48.630;9.000;2023-11-19T05:50:31;1.20;;;0.50;;
5785;SDS011;2919;48.630;9.000;2023-11-19T05:52:56;1.00;;;0.43;;
5785;SDS011;2919;48.630;9.000;2023-11-19T05:55:22;1.47;;;0.90;;
5785;SDS011;2919;48.630;9.000;2023-11-19T05:57:48;1.10;;;0.50;;
5785;SDS011;2919;48.630;9.000;2023-11-19T06:00:14;1.73;;;0.70;;
5785;SDS011;2919;48.630;9.000;2023-11-19T06:02:40;1.10;;;0.50;;
5785;SDS011;2919;48.630;9.000;2023-11-19T06:05:06;1.10;;;0.50;;
5785;SDS011;2919;48.630;9.000;2023-11-19T06:07:32;1.00;;;0.50;;
5785;SDS011;2919;48.630;9.000;2023-11-19T06:09:58;1.00;;;0.50;;
5785;SDS011;2919;48.630;9.000;2023-11-19T06:12:23;1.73;;;0.60;;
5785;SDS011;2919;48.630;9.000;2023-11-19T06:14:49;1.10;;;0.70;;
5785;SDS011;2919;48.630;9.000;2023-11-19T06:17:14;1.10;;;0.50;;
5785;SDS011;2919;48.630;9.000;2023-11-19T06:19:40;1.10;;;0.50;;
5785;SDS011;2919;48.630;9.000;2023-11-19T06:22:05;1.17;;;0.50;;
5785;SDS011;2919;48.630;9.000;2023-11-19T06:24:31;1.50;;;0.70;;
5785;SDS011;2919;48.630;9.000;2023-11-19T06:26:57;1.20;;;0.70;;
5785;SDS011;2919;48.630;9.000;2023-11-19T06:29:23;1.40;;;0.70;;
5785;SDS011;2919;48.630;9.000;2023-11-19T06:31:48;1.00;;;0.50;;
5785;SDS011;2919;48.630;9.000;2023-11-19T06:34:14;1.20;;;0.53;;
5785;SDS011;2919;48.630;9.000;2023-11-19T06:36:39;4.27;;;0.53;;
5785;SDS011;2919;48.630;9.000;2023-11-19T06:39:06;1.10;;;0.50;;
5785;SDS011;2919;48.630;9.000;2023-11-19T06:41:31;1.03;;;0.50;;
5785;SDS011;2919;48.630;9.000;2023-11-19T06:43:57;1.10;;;0.50;;
5785;SDS011;2919;48.630;9.000;2023-11-19T06:46:22;1.10;;;0.53;;
5785;SDS011;2919;48.630;9.000;2023-11-19T06:48:48;2.30;;;1.03;;
5785;SDS011;2919;48.630;9.000;2023-11-19T06:51:13;1.30;;;0.60;;
5785;SDS011;2919;48.630;9.000;2023-11-19T06:53:39;1.10;;;0.50;;
5785;SDS011;2919;48.630;9.000;2023-11-19T06:56:06;1.20;;;0.50;;
5785;SDS011;2919;48.630;9.000;2023-11-19T06:58:52;1.20;;;0.60;;
5785;SDS011;2919;48.630;9.000;2023-11-19T07:01:18;1.00;;;0.40;;
5785;SDS011;2919;48.630;9.000;2023-11-19T07:03:44;1.03;;;0.50;;
5785;SDS011;2919;48.630;9.000;2023-11-19T07:06:11;1.10;;;0.50;;
5785;SDS011;2919;48.630;9.000;2023-11-19T07:08:38;1.63;;;0.70;;
5785;SDS011;2919;48.630;9.000;2023-11-19T07:11:04;1.70;;;1.00;;
5785;SDS011;2919;48.630;9.000;2023-11-19T07:13:29;2.70;;;1.13;;
5785;SDS011;2919;48.630;9.000;2023-11-19T07:15:58;1.10;;;0.50;;
5785;SDS011;2919;48.630;9.000;2023-11-19T07:18:23;1.20;;;0.60;;
5785;SDS011;2919;48.630;9.000;2023-11-19T07:20:50;1.20;;;0.60;;
5785;SDS011;2919;48.630;9.000;2023-11-19T07:23:15;1.17;;;0.63;;
5785;SDS011;2919;48.630;9.000;2023-11-19T07:25:43;1.47;;;0.70;;
5785;SDS011;2919;48.630;9.000;2023-11-19T07:28:15;1.30;;;0.60;;
5785;SDS011;2919;48.630;9.000;2023-11-19T07:30:41;1.43;;;0.60;;
5785;SDS011;2919;48.630;9.000;2023-11-19T07:33:07;1.30;;;0.53;;
5785;SDS011;2919;48.630;9.000;2023-11-19T07:35:33;1.77;;;0.73;;
5785;SDS011;2919;48.630;9.000;2023-11-19T07:37:58;2.77;;;0.97;;
5785;SDS011;2919;48.630;9.000;2023-11-19T07:40:24;1.80;;;0.73;;
5785;SDS011;2919;48.630;9.000;2023-11-19T07:42:50;1.70;;;1.00;;
5785;SDS011;2919;48.630;9.000;2023-11-19T07:45:16;1.30;;;0.70;;
5785;SDS011;2919;48.630;9.000;2023-11-19T07:47:42;2.03;;;0.97;;
5785;SDS011;2919;48.630;9.000;2023-11-19T07:50:09;3.43;;;1.50;;
5785;SDS011;2919;48.630;9.000;2023-11-19T07:52:35;4.37;;;1.87;;
5785;SDS011;2919;48.630;9.000;2023-11-19T07:55:02;4.87;;;2.53;;
5785;SDS011;2919;48.630;9.000;2023-11-19T07:57:27;6.37;;;1.93;;
5785;SDS011;2919;48.630;9.000;2023-11-19T07:59:55;6.30;;;1.83;;
5785;SDS011;2919;48.630;9.000;2023-11-19T08:02:21;5.37;;;1.80;;
5785;SDS011;2919;48.630;9.000;2023-11-19T08:04:48;2.10;;;1.53;;
5785;SDS011;2919;48.630;9.000;2023-11-19T08:07:16;3.30;;;1.50;;
5785;SDS011;2919;48.630;9.000;2023-11-19T08:09:43;1.73;;;0.87;;
5785;SDS011;2919;48.630;9.000;2023-11-19T08:12:09;2.50;;;1.17;;
5785;SDS011;2919;48.630;9.000;2023-11-19T08:14:35;3.67;;;1.63;;
5785;SDS011;2919;48.630;9.000;2023-11-19T08:17:01;4.80;;;0.80;;
5785;SDS011;2919;48.630;9.000;2023-11-19T08:19:27;2.40;;;0.70;;
5785;SDS011;2919;48.630;9.000;2023-11-19T08:21:53;1.50;;;0.70;;
5785;SDS011;2919;48.630;9.000;2023-11-19T08:24:18;1.20;;;0.70;;
5785;SDS011;2919;48.630;9.000;2023-11-19T08:26:44;1.10;;;0.60;;
5785;SDS011;2919;48.630;9.000;2023-11-19T08:29:09;1.10;;;0.50;;
5785;SDS011;2919;48.630;9.000;2023-11-19T08:31:35;1.10;;;0.60;;
5785;SDS011;2919;48.630;9.000;2023-11-19T08:34:00;1.30;;;0.50;;
5785;SDS011;2919;48.630;9.000;2023-11-19T08:36:26;1.53;;;0.73;;
5785;SDS011;2919;48.630;9.000;2023-11-19T08:38:53;1.27;;;0.60;;
5785;SDS011;2919;48.630;9.000;2023-11-19T08:41:18;1.40;;;0.70;;
5785;SDS011;2919;48.630;9.000;2023-11-19T08:43:44;2.43;;;0.70;;
5785;SDS011;2919;48.630;9.000;2023-11-19T08:46:10;1.23;;;0.70;;
5785;SDS011;2919;48.630;9.000;2023-11-19T08:48:36;5.63;;;0.90;;
5785;SDS011;2919;48.630;9.000;2023-11-19T08:51:02;1.10;;;0.50;;
5785;SDS011;2919;48.630;9.000;2023-11-19T08:53:29;1.67;;;0.70;;
5785;SDS011;2919;48.630;9.000;2023-11-19T08:55:55;2.20;;;0.90;;
5785;SDS011;2919;48.630;9.000;2023-11-19T08:58:20;1.70;;;0.60;;
5785;SDS011;2919;48.630;9.000;2023-11-19T09:00:46;1.20;;;0.60;;
5785;SDS011;2919;48.630;9.000;2023-11-19T09:03:12;1.20;;;0.57;;
5785;SDS011;2919;48.630;9.000;2023-11-19T09:05:37;1.60;;;0.70;;
5785;SDS011;2919;48.630;9.000;2023-11-19T09:08:03;2.87;;;1.00;;
5785;SDS011;2919;48.630;9.000;2023-11-19T09:10:29;1.47;;;0.70;;
5785;SDS011;2919;48.630;9.000;2023-11-19T09:12:54;1.20;;;0.63;;
5785;SDS011;2919;48.630;9.000;2023-11-19T09:15:20;1.40;;;0.60;;
5785;SDS011;2919;48.630;9.000;2023-11-19T09:17:45;1.20;;;0.50;;
5785;SDS011;2919;48.630;9.000;2023-11-19T09:20:11;3.23;;;0.77;;
5785;SDS011;2919;48.630;9.000;2023-11-19T09:22:37;2.90;;;0.67;;
5785;SDS011;2919;48.630;9.000;2023-11-19T09:25:03;4.47;;;0.80;;
5785;SDS011;2919;48.630;9.000;2023-11-19T09:27:30;1.73;;;0.60;;
5785;SDS011;2919;48.630;9.000;2023-11-19T09:29:55;1.50;;;0.70;;
5785;SDS011;2919;48.630;9.000;2023-11-19T09:32:23;1.73;;;0.77;;
5785;SDS011;2919;48.630;9.000;2023-11-19T09:34:48;1.27;;;0.50;;
5785;SDS011;2919;48.630;9.000;2023-11-19T09:37:14;1.47;;;0.57;;
5785;SDS011;2919;48.630;9.000;2023-11-19T09:39:39;1.30;;;0.60;;
5785;SDS011;2919;48.630;9.000;2023-11-19T09:42:08;1.90;;;0.70;;
5785;SDS011;2919;48.630;9.000;2023-11-19T09:44:37;2.47;;;0.60;;
5785;SDS011;2919;48.630;9.000;2023-11-19T09:47:05;4.33;;;0.70;;
5785;SDS011;2919;48.630;9.000;2023-11-19T09:49:32;1.73;;;0.93;;
5785;SDS011;2919;48.630;9.000;2023-11-19T09:52:00;1.20;;;0.60;;
5785;SDS011;2919;48.630;9.000;2023-11-19T09:54:26;2.73;;;0.63;;
5785;SDS011;2919;48.630;9.000;2023-11-19T09:56:52;1.37;;;0.70;;
5785;SDS011;2919;48.630;9.000;2023-11-19T09:59:17;1.20;;;0.53;;
5785;SDS011;2919;48.630;9.000;2023-11-19T10:01:43;1.20;;;0.60;;
5785;SDS011;2919;48.630;9.000;2023-11-19T10:04:10;1.27;;;0.57;;
5785;SDS011;2919;48.630;9.000;2023-11-19T10:06:41;1.37;;;0.53;;
5785;SDS011;2919;48.630;9.000;2023-11-19T10:09:07;1.50;;;0.60;;
5785;SDS011;2919;48.630;9.000;2023-11-19T10:11:32;1.60;;;0.57;;
5785;SDS011;2919;48.630;9.000;2023-11-19T10:13:59;1.70;;;0.70;;
5785;SDS011;2919;48.630;9.000;2023-11-19T10:16:28;1.60;;;0.50;;
5785;SDS011;2919;48.630;9.000;2023-11-19T10:18:55;1.20;;;0.47;;
5785;SDS011;2919;48.630;9.000;2023-11-19T10:21:21;1.10;;;0.40;;
5785;SDS011;2919;48.630;9.000;2023-11-19T10:23:47;1.27;;;0.57;;
5785;SDS011;2919;48.630;9.000;2023-11-19T10:26:15;1.50;;;0.80;;
5785;SDS011;2919;48.630;9.000;2023-11-19T10:28:40;1.30;;;0.70;;
5785;SDS011;2919;48.630;9.000;2023-11-19T10:31:11;2.90;;;0.60;;
5785;SDS011;2919;48.630;9.000;2023-11-19T10:33:38;1.20;;;0.50;;
5785;SDS011;2919;48.630;9.000;2023-11-19T10:36:03;1.30;;;0.60;;
5785;SDS011;2919;48.630;9.000;2023-11-19T10:38:29;1.40;;;0.50;;
5785;SDS011;2919;48.630;9.000;2023-11-19T10:40:55;1.20;;;0.60;;
5785;SDS011;2919;48.630;9.000;2023-11-19T10:43:21;1.20;;;0.60;;
5785;SDS011;2919;48.630;9.000;2023-11-19T10:45:48;1.33;;;0.57;;
5785;SDS011;2919;48.630;9.000;2023-11-19T10:48:13;1.17;;;0.53;;
5785;SDS011;2919;48.630;9.000;2023-11-19T10:50:40;2.37;;;0.60;;
5785;SDS011;2919;48.630;9.000;2023-11-19T10:53:07;1.20;;;0.50;;
5785;SDS011;2919;48.630;9.000;2023-11-19T10:55:34;1.40;;;0.67;;
5785;SDS011;2919;48.630;9.000;2023-11-19T10:58:03;1.10;;;0.50;;
5785;SDS011;2919;48.630;9.000;2023-11-19T11:00:34;2.33;;;0.70;;
5785;SDS011;2919;48.630;9.000;2023-11-19T11:03:08;1.10;;;0.50;;
5785;SDS011;2919;48.630;9.000;2023-11-19T11:05:41;1.30;;;0.60;;
5785;SDS011;2919;48.630;9.000;2023-11-19T11:08:07;1.10;;;0.50;;
5785;SDS011;2919;48.630;9.000;2023-11-19T11:10:35;2.20;;;0.83;;
5785;SDS011;2919;48.630;9.000;2023-11-19T11:13:04;2.57;;;0.60;;
5785;SDS011;2919;48.630;9.000;2023-11-19T11:15:31;3.10;;;1.00;;
5785;SDS011;2919;48.630;9.000;2023-11-19T11:18:00;2.37;;;1.00;;
5785;SDS011;2919;48.630;9.000;2023-11-19T11:20:27;1.90;;;0.90;;
5785;SDS011;2919;48.630;9.000;2023-11-19T11:22:57;2.10;;;0.97;;
5785;SDS011;2919;48.630;9.000;2023-11-19T11:25:46;1.20;;;0.50;;
5785;SDS011;2919;48.630;9.000;2023-11-19T11:28:48;1.37;;;0.60;;
5785;SDS011;2919;48.630;9.000;2023-11-19T11:31:36;6.67;;;0.90;;
5785;SDS011;2919;48.630;9.000;2023-11-19T11:36:42;8.00;;;4.17;;
5785;SDS011;2919;48.630;9.000;2023-11-19T11:39:26;1.80;;;0.90;;
5785;SDS011;2919;48.630;9.000;2023-11-19T11:44:58;4.63;;;1.03;;
5785;SDS011;2919;48.630;9.000;2023-11-19T11:50:11;3.93;;;1.17;;
5785;SDS011;2919;48.630;9.000;2023-11-19T11:55:25;2.50;;;0.70;;
5785;SDS011;2919;48.630;9.000;2023-11-19T11:57:53;2.47;;;0.77;;
5785;SDS011;2919;48.630;9.000;2023-11-19T12:00:32;1.40;;;0.50;;
5785;SDS011;2919;48.630;9.000;2023-11-19T12:03:02;1.30;;;0.60;;
5785;SDS011;2919;48.630;9.000;2023-11-19T12:05:30;1.50;;;0.70;;
5785;SDS011;2919;48.630;9.000;2023-11-19T12:08:00;1.60;;;0.73;;
5785;SDS011;2919;48.630;9.000;2023-11-19T12:10:29;1.30;;;0.50;;
5785;SDS011;2919;48.630;9.000;2023-11-19T12:12:59;3.70;;;1.33;;
5785;SDS011;2919;48.630;9.000;2023-11-19T12:15:26;1.30;;;0.80;;
5785;SDS011;2919;48.630;9.000;2023-11-19T12:17:52;1.10;;;0.50;;
5785;SDS011;2919;48.630;9.000;2023-11-19T12:20:22;1.20;;;0.60;;
5785;SDS011;2919;48.630;9.000;2023-11-19T12:22:48;2.00;;;0.90;;
5785;SDS011;2919;48.630;9.000;2023-11-19T12:25:15;1.40;;;0.70;;
5785;SDS011;2919;48.630;9.000;2023-11-19T12:27:46;1.80;;;0.87;;
5785;SDS011;2919;48.630;9.000;2023-11-19T12:30:16;1.23;;;0.57;;
5785;SDS011;2919;48.630;9.000;2023-11-19T12:32:43;1.40;;;0.77;;
5785;SDS011;2919;48.630;9.000;2023-11-19T12:35:10;1.63;;;0.80;;
5785;SDS011;2919;48.630;9.000;2023-11-19T12:37:43;1.40;;;0.80;;
5785;SDS011;2919;48.630;9.000;2023-11-19T12:40:11;2.03;;;1.03;;
5785;SDS011;2919;48.630;9.000;2023-11-19T12:42:38;1.30;;;0.60;;
5785;SDS011;2919;48.630;9.000;2023-11-19T12:45:04;2.13;;;0.60;;
5785;SDS011;2919;48.630;9.000;2023-11-19T12:47:30;1.30;;;0.60;;
5785;SDS011;2919;48.630;9.000;2023-11-19T12:49:56;2.23;;;1.00;;
5785;SDS011;2919;48.630;9.000;2023-11-19T12:52:22;3.20;;;1.03;;
5785;SDS011;2919;48.630;9.000;2023-11-19T12:54:48;2.30;;;0.97;;
5785;SDS011;2919;48.630;9.000;2023-11-19T12:57:14;8.23;;;1.17;;
5785;SDS011;2919;48.630;9.000;2023-11-19T12:59:40;2.53;;;1.17;;
5785;SDS011;2919;48.630;9.000;2023-11-19T13:02:05;3.63;;;0.83;;
5785;SDS011;2919;48.630;9.000;2023-11-19T13:04:32;2.60;;;0.50;;
5785;SDS011;2919;48.630;9.000;2023-11-19T13:06:58;1.40;;;0.60;;
5785;SDS011;2919;48.630;9.000;2023-11-19T13:09:27;1.73;;;0.80;;
5785;SDS011;2919;48.630;9.000;2023-11-19T13:11:53;1.37;;;0.73;;
5785;SDS011;2919;48.630;9.000;2023-11-19T13:14:21;1.90;;;0.80;;
5785;SDS011;2919;48.630;9.000;2023-11-19T13:16:47;1.20;;;0.50;;
5785;SDS011;2919;48.630;9.000;2023-11-19T13:19:13;1.20;;;0.50;;
5785;SDS011;2919;48.630;9.000;2023-11-19T13:21:39;1.57;;;0.60;;
5785;SDS011;2919;48.630;9.000;2023-11-19T13:24:07;2.53;;;0.80;;
5785;SDS011;2919;48.630;9.000;2023-11-19T13:26:33;1.50;;;0.70;;
5785;SDS011;2919;48.630;9.000;2023-11-19T13:28:59;1.20;;;0.60;;
5785;SDS011;2919;48.630;9.000;2023-11-19T13:31:25;2.23;;;0.90;;
5785;SDS011;2919;48.630;9.000;2023-11-19T13:33:51;1.20;;;0.60;;
5785;SDS011;2919;48.630;9.000;2023-11-19T13:36:17;3.77;;;1.10;;
5785;SDS011;2919;48.630;9.000;2023-11-19T13:38:42;2.10;;;1.00;;
5785;SDS011;2919;48.630;9.000;2023-11-19T13:41:09;2.17;;;0.70;;
5785;SDS011;2919;48.630;9.000;2023-11-19T13:43:36;1.20;;;0.53;;
5785;SDS011;2919;48.630;9.000;2023-11-19T13:46:02;1.60;;;0.67;;
5785;SDS011;2919;48.630;9.000;2023-11-19T13:48:28;2.27;;;0.80;;
5785;SDS011;2919;48.630;9.000;2023-11-19T13:50:55;1.30;;;0.50;;
5785;SDS011;2919;48.630;9.000;2023-11-19T13:53:20;1.90;;;0.70;;
5785;SDS011;2919;48.630;9.000;2023-11-19T13:55:46;1.50;;;0.60;;
5785;SDS011;2919;48.630;9.000;2023-11-19T13:58:12;1.70;;;0.57;;
5785;SDS011;2919;48.630;9.000;2023-11-19T14:00:38;1.43;;;0.67;;
5785;SDS011;2919;48.630;9.000;2023-11-19T14:03:05;1.73;;;0.70;;
5785;SDS011;2919;48.630;9.000;2023-11-19T14:05:31;1.40;;;0.50;;
5785;SDS011;2919;48.630;9.000;2023-11-19T14:07:57;2.50;;;0.80;;
5785;SDS011;2919;48.630;9.000;2023-11-19T14:10:22;2.30;;;0.97;;
5785;SDS011;2919;48.630;9.000;2023-11-19T14:12:48;4.63;;;1.10;;
5785;SDS011;2919;48.630;9.000;2023-11-19T14:15:15;2.90;;;1.00;;
5785;SDS011;2919;48.630;9.000;2023-11-19T14:17:42;3.63;;;1.30;;
5785;SDS011;2919;48.630;9.000;2023-11-19T14:20:08;1.67;;;0.73;;
5785;SDS011;2919;48.630;9.000;2023-11-19T14:22:38;1.73;;;0.73;;
5785;SDS011;2919;48.630;9.000;2023-11-19T14:25:04;6.80;;;0.80;;
5785;SDS011;2919;48.630;9.000;2023-11-19T14:27:35;3.20;;;0.90;;
5785;SDS011;2919;48.630;9.000;2023-11-19T14:30:01;1.80;;;0.90;;
5785;SDS011;2919;48.630;9.000;2023-11-19T14:32:28;1.30;;;0.60;;
5785;SDS011;2919;48.630;9.000;2023-11-19T14:34:53;4.20;;;0.80;;
5785;SDS011;2919;48.630;9.000;2023-11-19T14:37:18;3.17;;;1.00;;
5785;SDS011;2919;48.630;9.000;2023-11-19T14:39:44;2.03;;;1.00;;
5785;SDS011;2919;48.630;9.000;2023-11-19T14:42:11;2.00;;;0.77;;
5785;SDS011;2919;48.630;9.000;2023-11-19T14:44:36;5.53;;;0.67;;
5785;SDS011;2919;48.630;9.000;2023-11-19T14:47:02;1.70;;;0.80;;
5785;SDS011;2919;48.630;9.000;2023-11-19T14:49:27;1.40;;;0.87;;
5785;SDS011;2919;48.630;9.000;2023-11-19T14:51:53;3.40;;;0.97;;
5785;SDS011;2919;48.630;9.000;2023-11-19T14:54:18;1.47;;;0.70;;
5785;SDS011;2919;48.630;9.000;2023-11-19T14:56:44;1.70;;;0.70;;
5785;SDS011;2919;48.630;9.000;2023-11-19T14:59:09;1.90;;;0.73;;
5785;SDS011;2919;48.630;9.000;2023-11-19T15:01:35;2.47;;;1.00;;
5785;SDS011;2919;48.630;9.000;2023-11-19T15:04:00;1.67;;;0.77;;
5785;SDS011;2919;48.630;9.000;2023-11-19T15:06:26;1.97;;;0.77;;
5785;SDS011;2919;48.630;9.000;2023-11-19T15:08:52;5.00;;;0.60;;
5785;SDS011;2919;48.630;9.000;2023-11-19T15:11:18;2.33;;;0.70;;
5785;SDS011;2919;48.630;9.000;2023-11-19T15:13:43;3.50;;;0.70;;
5785;SDS011;2919;48.630;9.000;2023-11-19T15:16:09;1.20;;;0.50;;
5785;SDS011;2919;48.630;9.000;2023-11-19T15:18:39;1.37;;;0.60;;
5785;SDS011;2919;48.630;9.000;2023-11-19T15:21:05;2.43;;;0.87;;
5785;SDS011;2919;48.630;9.000;2023-11-19T15:23:30;1.40;;;0.67;;